Lincoln, NE

4:18 AM CDT on August 23, 2014 (GMT -0500)
Capitol Beach | Change Station
CLOSE
Current Station
Personal Weather Station
Location: Lincoln, NE
Elevation: 1134 ft
Nearby Weather Stations

Elev 1134 ft 40.82 °N, 96.73 °W | Updated 14 seconds ago

Overcast
Overcast
70.0 °F
Feels Like 70.0 °F
N
1.0
Wind Variable Wind from NNW
Gusts 8.0 mph

Today
High -- | Low -- °F
--% Chance of Precip.
Yesterday
High -- | Low -- °F
Precip. -- in
6:45 AM 8:13 PM
Waning Crescent, 4% visible
Pressure 29.94 in
Visibility 10.0 miles
Clouds Few 4500 ft
Scattered Clouds 5500 ft
Overcast 10000 ft
Dew Point 68 °F
Humidity 94%
Rainfall 0.04 in
Snow Depth Not available.
UV 0 out of 12
Pollen 9.20 out of 12
Air Quality Not available.
Flu Activity Not available.
SPECI KLNK 230821Z AUTO 00000KT 10SM FEW045 SCT055 OVC100 21/20 A2994 RMK AO2 LTG DSNT ALQDS RAE06 P0000 T02110200

More Conditions Fewer Conditions

Pressure 29.94 in
Visibility 10.0 miles
Clouds Few 4500 ft
Scattered Clouds 5500 ft
Overcast 10000 ft
Dew Point 68 °F
Humidity 94%
Rainfall 0.04 in
Snow Depth Not available.
UV 0 out of 12
Pollen 9.20 out of 12
Air Quality Not available.
Flu Activity Not available.
SPECI KLNK 230821Z AUTO 00000KT 10SM FEW045 SCT055 OVC100 21/20 A2994 RMK AO2 LTG DSNT ALQDS RAE06 P0000 T02110200

More Conditions Fewer Conditions

10-Day Weather Forecast

Almanac

Astronomy

Aug. 23, 2014 Rise Set
Actual Time 6:45 AM CDT 8:13 PM CDT
Civil Twilight 6:16 AM CDT 8:42 PM CDT
Nautical Twilight 5:41 AM CDT 9:16 PM CDT
Astronomical Twilight 5:04 AM CDT 9:53 PM CDT
Moon 5:02 AM CDT 6:58 PM CDT
Length of Visible Light 14h 25m
Length of Day
13h 28m
Tomorrow will be 2m 31s shorter.
Waning Crescent, 4% of the Moon is Illuminated
Today
Waning Crescent
Aug 25
New
Sep 2
First Quarter
Sep 8
Full
Sep 15
Last Quarter

Today's Extremes

State Highs State Lows

Community

WunderPhotos

Upload Photos

1,746,396 photos uploaded!

WunderBlogs® & News

By Dr. Jeff Masters
Director of Meteorology, Weather Underground
By Kari Strenfel
Meteorologist, Weather Underground
By Christopher C. Burt
Weather Historian, Weather Underground
August 23, 2014
August 23, 2014
August 22, 2014

Nearby

Snow Depth

Station Depth Elevation
No new snow has been reported.

Earthquake Activity

City Distance Mag. Time & Date
No recent earthquake activity has been reported nearby.
Minimum magnitude displayed is 2.5.

Coastal Water Temperatures

Place Temperature
No Stations Reporting

Nearby Weather Stations